createdAt,value
2019-04-03T07:28:58.582Z,45.29
2019-04-03T07:38:57.928Z,45.56
2019-04-03T07:48:55.409Z,45.08
2019-04-03T07:58:55.299Z,45.00
2019-04-03T08:09:06.686Z,44.99
2019-04-03T08:18:55.227Z,45.25
2019-04-03T08:28:55.281Z,45.06
2019-04-03T08:38:58.173Z,45.82
2019-04-03T08:48:55.814Z,46.86
2019-04-03T08:58:57.329Z,46.85
2019-04-03T09:08:57.267Z,47.24
2019-04-03T09:18:55.230Z,47.51
2019-04-03T09:28:55.497Z,47.20
2019-04-03T12:02:04.264Z,47.08
2019-04-03T12:12:10.667Z,46.40
2019-04-03T12:22:04.167Z,45.64
2019-04-03T12:32:04.084Z,45.68
2019-04-03T12:42:03.974Z,45.79
2019-04-03T12:52:05.075Z,45.50
2019-04-03T13:02:04.004Z,45.65
2019-04-03T13:12:04.031Z,45.12
2019-04-03T13:22:03.946Z,45.84
2019-04-03T13:32:04.215Z,45.27
2019-04-03T13:42:04.072Z,45.59
2019-04-03T13:52:07.669Z,45.37
2019-04-03T14:02:04.284Z,45.27
2019-04-03T14:12:05.723Z,45.34
2019-04-03T14:22:04.475Z,45.62
2019-04-03T14:32:09.594Z,46.58
2019-04-03T14:42:08.671Z,47.52
2019-04-03T14:52:09.705Z,47.78
2019-04-03T15:02:09.712Z,47.23
2019-04-03T15:12:07.485Z,46.56
2019-04-03T15:22:04.454Z,46.03
2019-04-03T15:32:04.036Z,45.74
2019-04-03T15:42:06.484Z,45.84
2019-04-03T15:52:04.054Z,45.67
2019-04-03T16:02:04.037Z,45.84
2019-04-03T16:12:05.228Z,45.99
2019-04-03T16:22:04.060Z,45.81
2019-04-03T16:32:04.107Z,45.80
2019-04-03T16:42:04.802Z,45.29
2019-04-03T16:52:05.609Z,45.67
2019-04-03T17:02:04.013Z,45.94
2019-04-03T17:12:04.209Z,45.59
2019-04-03T17:22:06.701Z,45.60
2019-04-03T17:32:07.802Z,45.74
2019-04-03T17:42:04.101Z,45.57
2019-04-03T17:52:05.086Z,45.56
2019-04-03T18:02:04.011Z,45.48
2019-04-03T18:12:04.198Z,46.15
2019-04-03T18:22:08.471Z,46.66
